KBJI/BJI METAR and TAF weather

Enter ICAO airport designator
Station Type Date Time Source
KBJI METAR 2020/02/16 19:56 UTC NOAA

KBJI 161956Z AUTO 13004KT 10SM CLR M10/M20 A3003 RMK AO2 T11051204


Station Type Date Time Source
KBJI Decoded METAR 2020/02/16 19:56 UTC NOAA

Bemidji, MN, United States (KBJI) 47-30N 094-56W 420M
Feb 16, 2020 - 02:56 PM EST / 2020.02.16 1956 UTC
Wind: from the SE (130 degrees) at 5 MPH (4 KT):0
Visibility: 10 mile(s):0
Sky conditions: clear
Temperature: 13.1 F (-10.5 C)
Windchill: 5 F (-15 C):1
Dew Point: -4.7 F (-20.4 C)
Relative Humidity: 44%
Pressure (altimeter): 30.03 in. Hg (1016 hPa)
ob: KBJI 161956Z AUTO 13004KT 10SM CLR M10/M20 A3003 RMK AO2 T11051204
cycle: 20

Station Type Date Time Source
KBJI TAF 2020/02/16 18:27 UTC NOAA

TAF KBJI 161725Z 1618/1718 VRB04KT P6SM SKC
FM170600 14006KT 5SM -SN OVC025
FM171200 15005KT 5SM -SN OVC008

Example: see airport list